createdAt,value
2023-01-31T00:00:53.369Z,6.88
2023-01-31T00:03:20.433Z,6.35
2023-01-31T00:05:47.597Z,5.97
2023-01-31T00:08:15.318Z,6.70
2023-01-31T00:10:42.321Z,6.53
2023-01-31T00:13:09.334Z,6.47
2023-01-31T00:15:36.453Z,7.38
2023-01-31T00:18:03.582Z,6.50
2023-01-31T00:20:30.641Z,6.15
2023-01-31T00:22:58.781Z,6.05
2023-01-31T00:25:25.810Z,6.18
2023-01-31T00:27:52.868Z,7.55
2023-01-31T00:30:19.890Z,7.25
2023-01-31T00:32:46.936Z,6.25
2023-01-31T00:35:13.949Z,6.75
2023-01-31T00:37:40.999Z,6.65
2023-01-31T00:40:08.648Z,6.45
2023-01-31T00:42:36.199Z,6.72
2023-01-31T00:45:03.569Z,7.00
2023-01-31T00:47:30.575Z,5.60
2023-01-31T00:49:57.565Z,6.85
2023-01-31T00:52:24.655Z,6.15
2023-01-31T00:54:51.726Z,6.22
2023-01-31T00:57:18.739Z,7.28
2023-01-31T00:59:45.758Z,7.05
2023-01-31T01:02:12.903Z,7.70
2023-01-31T01:04:39.924Z,7.20
2023-01-31T01:07:06.956Z,7.40
2023-01-31T01:09:34.500Z,6.95
2023-01-31T01:12:01.919Z,7.32
2023-01-31T01:14:28.941Z,6.95
2023-01-31T01:16:58.271Z,7.80
2023-01-31T01:19:25.314Z,8.20
2023-01-31T01:21:52.367Z,8.20
2023-01-31T01:24:20.579Z,7.85
2023-01-31T01:26:47.855Z,8.10
2023-01-31T01:29:15.015Z,6.82
2023-01-31T01:31:42.120Z,7.97
2023-01-31T01:34:12.152Z,7.40
2023-01-31T01:36:39.506Z,7.10
2023-01-31T01:39:08.953Z,6.78
2023-01-31T01:41:36.338Z,7.57
2023-01-31T01:44:05.233Z,8.20
2023-01-31T01:46:34.685Z,8.45
2023-01-31T01:49:05.141Z,8.45
2023-01-31T01:51:33.336Z,8.45
2023-01-31T01:54:01.301Z,8.20
2023-01-31T01:56:33.970Z,7.05
2023-01-31T01:59:03.849Z,7.28
2023-01-31T02:01:34.181Z,8.70
2023-01-31T02:04:01.568Z,7.63
2023-01-31T02:06:29.400Z,8.65
2023-01-31T02:08:56.494Z,7.65
2023-01-31T02:11:23.564Z,8.68
2023-01-31T02:13:51.708Z,7.78
2023-01-31T02:16:19.006Z,8.15
2023-01-31T02:18:46.445Z,6.65
2023-01-31T02:21:13.440Z,8.02
2023-01-31T02:23:53.981Z,8.82
2023-01-31T02:26:27.206Z,8.45
2023-01-31T02:29:20.844Z,7.03
2023-01-31T02:31:54.017Z,7.03
2023-01-31T02:34:21.012Z,7.70
2023-01-31T02:36:51.123Z,6.72
2023-01-31T02:39:36.960Z,7.97
2023-01-31T02:42:07.634Z,7.30
2023-01-31T02:45:01.078Z,7.38
2023-01-31T02:47:40.267Z,5.73
2023-01-31T02:50:07.229Z,7.00
2023-01-31T02:52:52.934Z,7.20
2023-01-31T02:55:44.524Z,8.35
2023-01-31T02:58:13.050Z,7.75
2023-01-31T03:00:41.835Z,7.57
2023-01-31T03:03:13.541Z,6.93
2023-01-31T03:05:42.739Z,6.82
2023-01-31T03:08:15.642Z,7.35
2023-01-31T03:10:56.440Z,5.47
2023-01-31T03:13:30.522Z,6.13
2023-01-31T03:16:28.426Z,5.97
2023-01-31T03:18:58.284Z,6.45
2023-01-31T03:21:28.392Z,6.72
2023-01-31T03:23:56.733Z,6.57
2023-01-31T03:26:24.471Z,6.65
2023-01-31T03:28:57.040Z,6.63
2023-01-31T03:31:33.212Z,6.55
2023-01-31T03:34:02.666Z,7.53
2023-01-31T03:36:38.723Z,6.65
2023-01-31T03:39:28.052Z,6.57
2023-01-31T03:42:02.773Z,6.93
2023-01-31T03:44:37.633Z,7.15
2023-01-31T03:47:07.608Z,6.97
2023-01-31T03:49:35.330Z,7.32
2023-01-31T03:52:06.807Z,6.80
2023-01-31T03:54:37.348Z,7.32
2023-01-31T03:57:13.297Z,7.35
2023-01-31T03:59:41.031Z,7.22
2023-01-31T04:02:10.618Z,7.53
2023-01-31T04:04:42.380Z,6.45
2023-01-31T04:07:09.453Z,8.00
2023-01-31T04:09:37.497Z,7.43
2023-01-31T04:12:05.037Z,7.28
2023-01-31T04:14:32.185Z,7.22
2023-01-31T04:16:59.365Z,7.20
2023-01-31T04:19:26.361Z,8.10
2023-01-31T04:21:53.350Z,8.05
2023-01-31T04:24:20.387Z,6.78
2023-01-31T04:26:47.434Z,7.18
2023-01-31T04:29:14.449Z,7.75
2023-01-31T04:31:41.709Z,6.80
2023-01-31T04:34:09.379Z,7.00
2023-01-31T04:36:36.601Z,7.30
2023-01-31T04:39:03.640Z,6.80
2023-01-31T04:41:30.654Z,6.78
2023-01-31T04:43:57.829Z,7.47
2023-01-31T04:46:24.966Z,7.05
2023-01-31T04:48:51.975Z,7.65
2023-01-31T04:51:19.021Z,7.00
2023-01-31T04:53:46.079Z,7.70
2023-01-31T04:56:13.259Z,7.45
2023-01-31T04:58:41.511Z,6.68
2023-01-31T05:01:09.079Z,7.57
2023-01-31T05:03:36.433Z,7.95
2023-01-31T05:06:03.554Z,7.55
2023-01-31T05:08:30.743Z,7.40
2023-01-31T05:10:58.868Z,7.97
2023-01-31T05:13:25.990Z,7.55
2023-01-31T05:15:53.352Z,6.80
2023-01-31T05:18:20.390Z,6.80
2023-01-31T05:20:50.042Z,6.95
2023-01-31T05:23:17.868Z,7.47
2023-01-31T05:25:45.474Z,7.85
2023-01-31T05:28:13.491Z,8.40
2023-01-31T05:30:40.735Z,7.35
2023-01-31T05:33:07.990Z,7.53
2023-01-31T05:35:35.886Z,7.18
2023-01-31T05:38:03.463Z,6.63
2023-01-31T05:40:30.520Z,6.88
2023-01-31T05:43:00.905Z,6.90
2023-01-31T05:45:28.607Z,6.90
2023-01-31T05:47:55.845Z,7.38
2023-01-31T05:50:22.939Z,7.28
2023-01-31T05:52:54.498Z,6.13
2023-01-31T05:55:22.483Z,7.00
2023-01-31T05:57:49.739Z,7.78
2023-01-31T06:00:17.037Z,7.32
2023-01-31T06:02:44.314Z,5.55
2023-01-31T06:05:11.925Z,7.03
2023-01-31T06:07:39.270Z,6.72
2023-01-31T06:10:06.810Z,6.95
2023-01-31T06:12:33.810Z,7.15
2023-01-31T06:15:00.887Z,6.50
2023-01-31T06:17:29.450Z,5.72
2023-01-31T06:19:57.867Z,7.07
2023-01-31T06:22:25.048Z,7.38
2023-01-31T06:24:52.127Z,7.55
2023-01-31T06:27:19.123Z,5.95
2023-01-31T06:29:46.174Z,5.80
2023-01-31T06:32:13.187Z,5.00
2023-01-31T06:34:40.259Z,7.22
2023-01-31T06:37:09.915Z,7.20
2023-01-31T06:39:37.058Z,6.47
2023-01-31T06:42:04.544Z,6.63
2023-01-31T06:44:33.257Z,7.18
2023-01-31T06:47:03.017Z,5.38
2023-01-31T06:49:30.444Z,6.30
2023-01-31T06:51:57.535Z,5.93
2023-01-31T06:54:24.604Z,6.43
2023-01-31T06:56:51.638Z,6.07
2023-01-31T06:59:18.694Z,7.30
2023-01-31T07:01:45.797Z,6.30
2023-01-31T07:04:12.897Z,6.15
2023-01-31T07:06:40.011Z,6.30
2023-01-31T07:09:07.517Z,5.97
2023-01-31T07:11:34.545Z,6.05
2023-01-31T07:14:01.648Z,6.32
2023-01-31T07:16:28.681Z,6.22
2023-01-31T07:18:56.482Z,6.55
2023-01-31T07:21:24.444Z,6.80
2023-01-31T07:23:52.150Z,7.22
2023-01-31T07:26:19.265Z,6.40
2023-01-31T07:28:46.337Z,6.55
2023-01-31T07:31:14.456Z,7.13
2023-01-31T07:33:42.022Z,7.03
2023-01-31T07:36:11.198Z,7.13
2023-01-31T07:38:38.222Z,7.07
2023-01-31T07:41:05.555Z,5.35
2023-01-31T07:43:33.285Z,7.05
2023-01-31T07:46:00.503Z,7.13
2023-01-31T07:48:28.007Z,6.10
2023-01-31T07:51:00.191Z,6.78
2023-01-31T07:53:28.946Z,6.20
2023-01-31T07:55:56.229Z,6.45
2023-01-31T07:58:23.326Z,7.30
2023-01-31T08:01:09.079Z,6.43
2023-01-31T08:03:36.996Z,5.47
2023-01-31T08:06:13.812Z,6.97
2023-01-31T08:08:41.904Z,5.30
2023-01-31T08:11:09.137Z,5.72
2023-01-31T08:13:36.606Z,5.97
2023-01-31T08:16:04.434Z,6.15
2023-01-31T08:18:31.895Z,5.63
2023-01-31T08:20:59.465Z,6.25
2023-01-31T08:23:27.835Z,5.70
2023-01-31T08:26:00.373Z,5.72
2023-01-31T08:28:27.456Z,5.35
2023-01-31T08:31:07.827Z,5.43
2023-01-31T08:33:36.858Z,5.32
2023-01-31T08:36:15.365Z,6.75
2023-01-31T08:38:43.042Z,5.43
2023-01-31T08:41:10.186Z,6.97
2023-01-31T08:43:53.805Z,4.70
2023-01-31T08:46:23.357Z,5.45
2023-01-31T08:48:50.415Z,6.18
2023-01-31T08:51:17.491Z,5.95
2023-01-31T08:53:44.997Z,5.97
2023-01-31T08:56:12.600Z,5.60
2023-01-31T08:58:41.975Z,4.80
2023-01-31T09:01:10.888Z,5.55
2023-01-31T09:03:38.035Z,4.82
2023-01-31T09:06:06.943Z,5.82
2023-01-31T09:08:34.061Z,5.05
2023-01-31T09:11:01.772Z,4.63
2023-01-31T09:13:30.036Z,5.35
2023-01-31T09:16:00.920Z,6.05
2023-01-31T09:18:28.736Z,4.90
2023-01-31T09:20:56.123Z,5.32
2023-01-31T09:23:23.260Z,5.25
2023-01-31T09:25:54.261Z,5.40
2023-01-31T09:28:21.650Z,4.63
2023-01-31T09:30:49.132Z,4.63
2023-01-31T09:33:16.602Z,4.78
2023-01-31T09:35:43.635Z,5.57
2023-01-31T09:38:10.673Z,4.97
2023-01-31T09:40:40.952Z,4.72
2023-01-31T09:43:12.165Z,5.05
2023-01-31T09:45:43.789Z,4.72
2023-01-31T09:48:15.557Z,4.65
2023-01-31T09:50:50.837Z,4.40
2023-01-31T09:53:21.824Z,4.63
2023-01-31T09:55:55.720Z,4.07
2023-01-31T10:00:49.841Z,5.10
2023-01-31T10:03:19.661Z,4.90
2023-01-31T10:05:50.573Z,4.40
2023-01-31T10:08:29.789Z,3.72
2023-01-31T10:10:59.669Z,5.57
2023-01-31T10:13:37.649Z,4.05
2023-01-31T10:16:10.874Z,3.65
2023-01-31T10:18:40.356Z,4.60
2023-01-31T10:21:09.929Z,3.40
2023-01-31T10:23:42.649Z,4.32
2023-01-31T10:26:30.386Z,3.42
2023-01-31T10:29:06.579Z,3.55
2023-01-31T10:31:39.302Z,3.60
2023-01-31T10:34:18.430Z,3.13
2023-01-31T10:36:51.497Z,4.38
2023-01-31T10:39:22.093Z,3.58
2023-01-31T10:42:07.080Z,3.40
2023-01-31T10:44:42.586Z,4.15
2023-01-31T10:47:16.931Z,3.53
2023-01-31T10:49:48.074Z,3.78
2023-01-31T10:52:17.922Z,3.08
2023-01-31T10:54:47.258Z,3.55
2023-01-31T10:57:14.572Z,4.18
2023-01-31T10:59:46.479Z,3.72
2023-01-31T11:02:27.261Z,3.78
2023-01-31T11:04:55.761Z,4.47
2023-01-31T11:07:23.090Z,5.00
2023-01-31T11:09:51.907Z,4.10
2023-01-31T11:12:19.089Z,4.32
2023-01-31T11:14:46.186Z,3.80
2023-01-31T11:17:18.154Z,4.68
2023-01-31T11:19:47.272Z,5.00
2023-01-31T11:22:28.135Z,4.68
2023-01-31T11:24:56.187Z,4.40
2023-01-31T11:27:43.063Z,5.80
2023-01-31T11:30:22.502Z,4.68
2023-01-31T11:32:49.952Z,5.22
2023-01-31T11:35:17.003Z,5.45
2023-01-31T11:38:01.114Z,4.53
2023-01-31T11:42:59.908Z,5.10
2023-01-31T11:45:39.804Z,5.72
2023-01-31T11:48:13.063Z,4.82
2023-01-31T11:50:47.544Z,5.47
2023-01-31T11:53:17.538Z,5.53
2023-01-31T11:55:45.030Z,4.20
2023-01-31T11:58:20.646Z,5.32
2023-01-31T12:00:58.128Z,4.47
2023-01-31T12:03:25.583Z,5.80
2023-01-31T12:06:00.576Z,4.72
2023-01-31T12:08:38.356Z,5.40
2023-01-31T12:11:25.358Z,5.45
2023-01-31T12:13:53.644Z,4.90
2023-01-31T12:16:25.630Z,6.03
2023-01-31T12:18:58.837Z,5.43
2023-01-31T12:21:28.656Z,5.43
2023-01-31T12:24:01.623Z,4.75
2023-01-31T12:26:35.645Z,5.27
2023-01-31T12:29:02.887Z,5.55
2023-01-31T12:31:50.917Z,6.05
2023-01-31T12:34:20.746Z,6.25
2023-01-31T12:36:59.284Z,5.25
2023-01-31T12:39:44.854Z,5.70
2023-01-31T12:42:24.386Z,6.65
2023-01-31T12:45:16.364Z,6.30
2023-01-31T12:47:55.371Z,6.65
2023-01-31T12:50:25.225Z,6.65
2023-01-31T12:52:52.348Z,6.82
2023-01-31T12:55:28.576Z,5.85
2023-01-31T12:57:58.619Z,7.07
2023-01-31T13:00:51.575Z,7.53
2023-01-31T13:03:30.485Z,6.15
2023-01-31T13:05:59.786Z,6.53
2023-01-31T13:08:31.001Z,7.07
2023-01-31T13:10:59.849Z,6.15
2023-01-31T13:13:36.609Z,6.68
2023-01-31T13:16:06.180Z,6.80
2023-01-31T13:18:34.720Z,6.40
2023-01-31T13:21:04.700Z,6.30
2023-01-31T13:23:33.952Z,7.03
2023-01-31T13:26:10.278Z,6.03
2023-01-31T13:28:49.441Z,7.00
2023-01-31T13:31:25.298Z,6.32
2023-01-31T13:34:06.129Z,6.82
2023-01-31T13:36:34.303Z,6.68
2023-01-31T13:39:02.783Z,7.40
2023-01-31T13:41:31.084Z,6.80
2023-01-31T13:43:58.638Z,8.05
2023-01-31T13:46:29.651Z,7.05
2023-01-31T13:49:01.863Z,7.90
2023-01-31T13:51:33.874Z,7.30
2023-01-31T13:54:15.127Z,6.75
2023-01-31T13:56:42.478Z,6.68
2023-01-31T13:59:10.759Z,6.80
2023-01-31T14:01:45.059Z,7.15
2023-01-31T14:04:15.393Z,7.07
2023-01-31T14:06:54.761Z,7.85
2023-01-31T14:09:31.917Z,6.80
2023-01-31T14:12:02.826Z,7.00
2023-01-31T14:14:38.866Z,6.65
2023-01-31T14:17:06.801Z,6.55
2023-01-31T14:19:43.190Z,7.22
2023-01-31T14:22:20.239Z,7.28
2023-01-31T14:24:47.343Z,7.65
2023-01-31T14:27:22.055Z,6.70
2023-01-31T14:29:58.301Z,7.25
2023-01-31T14:32:54.415Z,7.53
2023-01-31T14:35:28.273Z,6.70
2023-01-31T14:40:27.103Z,6.78
2023-01-31T14:42:57.209Z,6.68
2023-01-31T14:45:33.194Z,7.93
2023-01-31T14:48:06.215Z,8.02
2023-01-31T14:50:41.778Z,7.20
2023-01-31T14:53:20.947Z,6.88
2023-01-31T14:55:57.030Z,7.13
2023-01-31T14:58:26.413Z,7.43
2023-01-31T15:00:55.809Z,6.45
2023-01-31T15:03:22.978Z,5.90
2023-01-31T15:05:52.118Z,7.15
2023-01-31T15:08:19.734Z,6.68
2023-01-31T15:11:01.855Z,5.75
2023-01-31T15:13:38.056Z,7.63
2023-01-31T15:16:07.226Z,6.30
2023-01-31T15:18:34.821Z,7.22
2023-01-31T15:21:04.550Z,7.28
2023-01-31T15:23:33.097Z,6.80
2023-01-31T15:26:02.027Z,7.15
2023-01-31T15:28:31.199Z,7.35
2023-01-31T15:30:59.439Z,7.28
2023-01-31T15:33:35.418Z,6.85
2023-01-31T15:36:05.396Z,7.35
2023-01-31T15:38:35.338Z,5.97
2023-01-31T15:41:17.104Z,7.28
2023-01-31T15:43:44.172Z,8.32
2023-01-31T15:46:23.518Z,7.55
2023-01-31T15:48:50.890Z,7.25
2023-01-31T15:51:18.558Z,7.68
2023-01-31T15:53:46.035Z,7.65
2023-01-31T15:56:19.503Z,7.10
2023-01-31T15:58:48.139Z,7.97
2023-01-31T16:01:19.258Z,8.10
2023-01-31T16:03:51.551Z,7.32
2023-01-31T16:06:29.938Z,7.72
2023-01-31T16:09:01.869Z,7.40
2023-01-31T16:11:33.559Z,7.10
2023-01-31T16:14:02.492Z,8.25
2023-01-31T16:16:30.451Z,8.65
2023-01-31T16:19:00.632Z,7.60
2023-01-31T16:21:32.321Z,6.55
2023-01-31T16:24:11.541Z,7.82
2023-01-31T16:26:39.993Z,7.75
2023-01-31T16:29:08.705Z,7.47
2023-01-31T16:31:36.511Z,7.95
2023-01-31T16:34:04.847Z,8.23
2023-01-31T16:36:34.040Z,8.32
2023-01-31T16:39:05.734Z,9.02
2023-01-31T16:41:44.779Z,7.95
2023-01-31T16:44:18.256Z,8.32
2023-01-31T16:46:46.326Z,8.57
2023-01-31T16:49:27.089Z,8.07
2023-01-31T16:51:58.698Z,8.48
2023-01-31T16:54:28.577Z,8.50
2023-01-31T16:57:07.443Z,8.15
2023-01-31T16:59:34.641Z,7.72
2023-01-31T17:02:02.953Z,8.65
2023-01-31T17:04:31.116Z,8.88
2023-01-31T17:07:03.191Z,8.63
2023-01-31T17:09:30.381Z,8.73
2023-01-31T17:11:57.701Z,9.02
2023-01-31T17:14:25.423Z,8.05
2023-01-31T17:16:53.363Z,7.10
2023-01-31T17:19:20.464Z,8.27
2023-01-31T17:21:49.650Z,7.57
2023-01-31T17:24:20.360Z,8.35
2023-01-31T17:26:47.438Z,7.97
2023-01-31T17:29:14.629Z,8.32
2023-01-31T17:31:42.111Z,7.50
2023-01-31T17:34:13.898Z,7.35
2023-01-31T17:36:41.108Z,9.50
2023-01-31T17:39:08.134Z,8.75
2023-01-31T17:41:35.296Z,7.65
2023-01-31T17:44:02.964Z,8.32
2023-01-31T17:46:31.281Z,9.38
2023-01-31T17:48:58.493Z,8.73
2023-01-31T17:51:25.575Z,8.60
2023-01-31T17:53:52.739Z,8.68
2023-01-31T17:56:20.001Z,8.10
2023-01-31T17:58:48.405Z,9.13
2023-01-31T18:01:15.720Z,8.77
2023-01-31T18:03:43.023Z,7.70
2023-01-31T18:06:10.693Z,8.27
2023-01-31T18:08:37.836Z,7.72
2023-01-31T18:11:09.218Z,6.88
2023-01-31T18:13:38.035Z,8.32
2023-01-31T18:16:05.284Z,8.88
2023-01-31T18:18:32.370Z,8.60
2023-01-31T18:20:59.520Z,8.13
2023-01-31T18:23:26.646Z,9.10
2023-01-31T18:25:53.682Z,9.27
2023-01-31T18:28:20.763Z,7.57
2023-01-31T18:30:47.895Z,7.47
2023-01-31T18:33:14.968Z,8.32
2023-01-31T18:35:42.034Z,8.50
2023-01-31T18:38:09.050Z,8.05
2023-01-31T18:40:36.088Z,7.90
2023-01-31T18:43:03.148Z,7.65
2023-01-31T18:45:30.182Z,8.65
2023-01-31T18:47:57.221Z,7.80
2023-01-31T18:50:24.371Z,8.77
2023-01-31T18:52:51.532Z,8.23
2023-01-31T18:55:19.020Z,7.88
2023-01-31T18:57:46.317Z,7.28
2023-01-31T19:00:13.671Z,8.13
2023-01-31T19:02:40.714Z,8.50
2023-01-31T19:05:08.712Z,7.85
2023-01-31T19:07:35.754Z,7.72
2023-01-31T19:10:03.146Z,7.32
2023-01-31T19:12:30.160Z,7.30
2023-01-31T19:14:57.216Z,7.28
2023-01-31T19:17:24.279Z,8.02
2023-01-31T19:19:51.433Z,8.00
2023-01-31T19:22:18.988Z,7.63
2023-01-31T19:24:46.020Z,7.70
2023-01-31T19:27:13.025Z,7.10
2023-01-31T19:29:41.474Z,6.32
2023-01-31T19:32:08.605Z,7.72
2023-01-31T19:34:37.165Z,7.07
2023-01-31T19:37:04.449Z,7.20
2023-01-31T19:39:31.600Z,7.30
2023-01-31T19:41:58.888Z,6.45
2023-01-31T19:44:25.916Z,6.88
2023-01-31T19:46:53.813Z,6.82
2023-01-31T19:49:22.187Z,7.55
2023-01-31T19:51:49.306Z,7.57
2023-01-31T19:54:17.285Z,7.28
2023-01-31T19:56:44.996Z,7.72
2023-01-31T19:59:12.541Z,7.13
2023-01-31T20:01:39.630Z,6.72
2023-01-31T20:04:06.749Z,6.45
2023-01-31T20:06:34.790Z,7.07
2023-01-31T20:09:04.693Z,5.85
2023-01-31T20:11:31.982Z,6.45
2023-01-31T20:14:00.168Z,6.28
2023-01-31T20:16:27.311Z,6.93
2023-01-31T20:18:57.265Z,6.03
2023-01-31T20:21:24.539Z,4.88
2023-01-31T20:23:51.590Z,6.47
2023-01-31T20:26:19.379Z,6.22
2023-01-31T20:28:46.533Z,5.38
2023-01-31T20:31:14.454Z,6.13
2023-01-31T20:33:41.589Z,5.75
2023-01-31T20:36:08.874Z,5.30
2023-01-31T20:38:37.410Z,6.30
2023-01-31T20:41:05.248Z,4.45
2023-01-31T20:43:32.273Z,6.10
2023-01-31T20:46:03.477Z,5.72
2023-01-31T20:48:30.527Z,6.13
2023-01-31T20:50:58.148Z,5.75
2023-01-31T20:53:25.877Z,5.90
2023-01-31T20:55:57.547Z,5.85
2023-01-31T20:58:25.182Z,6.00
2023-01-31T21:00:53.252Z,5.53
2023-01-31T21:03:20.434Z,5.00
2023-01-31T21:05:47.500Z,6.00
2023-01-31T21:08:14.549Z,6.57
2023-01-31T21:10:41.736Z,6.57
2023-01-31T21:13:09.083Z,6.00
2023-01-31T21:15:36.220Z,5.28
2023-01-31T21:18:03.328Z,6.35
2023-01-31T21:20:30.423Z,6.03
2023-01-31T21:22:57.436Z,4.97
2023-01-31T21:25:24.499Z,5.45
2023-01-31T21:27:51.481Z,6.30
2023-01-31T21:30:19.039Z,4.05
2023-01-31T21:32:46.478Z,5.70
2023-01-31T21:35:14.560Z,4.90
2023-01-31T21:37:41.649Z,4.35
2023-01-31T21:40:09.093Z,5.47
2023-01-31T21:42:36.235Z,4.53
2023-01-31T21:45:03.269Z,5.10
2023-01-31T21:47:32.498Z,4.40
2023-01-31T21:49:59.577Z,4.88
2023-01-31T21:52:26.610Z,6.03
2023-01-31T21:54:53.663Z,5.72
2023-01-31T21:57:20.684Z,5.75
2023-01-31T21:59:47.723Z,4.88
2023-01-31T22:02:14.715Z,5.18
2023-01-31T22:04:41.836Z,5.65
2023-01-31T22:07:09.555Z,5.53
2023-01-31T22:09:36.641Z,5.50
2023-01-31T22:12:03.684Z,6.00
2023-01-31T22:14:30.665Z,6.00
2023-01-31T22:16:57.707Z,5.35
2023-01-31T22:19:24.726Z,4.88
2023-01-31T22:21:51.742Z,5.22
2023-01-31T22:24:18.845Z,5.97
2023-01-31T22:26:45.938Z,4.50
2023-01-31T22:29:15.135Z,5.25
2023-01-31T22:31:43.044Z,4.68
2023-01-31T22:34:12.863Z,4.95
2023-01-31T22:36:40.203Z,5.43
2023-01-31T22:39:07.605Z,5.45
2023-01-31T22:41:34.641Z,4.55
2023-01-31T22:44:01.789Z,5.28
2023-01-31T22:46:29.760Z,5.07
2023-01-31T22:48:56.967Z,5.45
2023-01-31T22:51:25.923Z,6.10
2023-01-31T22:53:53.723Z,5.60
2023-01-31T22:56:24.091Z,6.18
2023-01-31T22:58:55.976Z,6.07
2023-01-31T23:01:24.170Z,5.93
2023-01-31T23:03:51.272Z,5.68
2023-01-31T23:06:18.739Z,5.82
2023-01-31T23:08:45.869Z,5.45
2023-01-31T23:11:14.106Z,5.22
2023-01-31T23:13:41.823Z,5.70
2023-01-31T23:16:09.192Z,5.55
2023-01-31T23:18:36.737Z,5.43
2023-01-31T23:21:11.025Z,5.90
2023-01-31T23:23:38.299Z,4.68
2023-01-31T23:26:05.551Z,6.45
2023-01-31T23:28:32.817Z,4.80
2023-01-31T23:30:59.914Z,4.93
2023-01-31T23:33:28.112Z,4.93
2023-01-31T23:35:55.722Z,4.97
2023-01-31T23:38:23.011Z,4.97
2023-01-31T23:40:53.717Z,5.45
2023-01-31T23:43:21.361Z,5.60
2023-01-31T23:45:48.502Z,4.85
2023-01-31T23:48:15.562Z,5.00
2023-01-31T23:50:42.707Z,5.03
2023-01-31T23:53:09.809Z,4.30
2023-01-31T23:55:37.075Z,4.82
2023-01-31T23:58:04.172Z,4.88
